Time;durP1;ratioP1;P1;durP2;ratioP2;P2;SDS_P1;SDS_P2;PMS_P1;PMS_P2;Temp;Humidity;BMP_temperature;BMP_pressure;BME280_temperature;BME280_humidity;BME280_pressure;Samples;Min_cycle;Max_cycle;Signal;HPM_P1;HPM_P2
2023/11/12 00:00:16;;;;;;;11.30;2.60;;;6.80;99.90;;;;;;5019034;28;20037;-75
2023/11/12 00:02:42;;;;;;;5.28;2.33;;;6.80;99.90;;;;;;5018612;28;20121;-74
2023/11/12 00:05:09;;;;;;;8.00;2.78;;;6.80;99.90;;;;;;5008061;28;20132;-76
2023/11/12 00:07:35;;;;;;;6.40;2.05;;;6.90;99.90;;;;;;5026824;28;20099;-77
2023/11/12 00:10:01;;;;;;;7.72;2.20;;;6.90;99.90;;;;;;5005112;28;20034;-77
2023/11/12 00:12:28;;;;;;;7.55;3.03;;;6.90;99.90;;;;;;5021829;28;20379;-77
2023/11/12 00:14:53;;;;;;;6.57;2.50;;;6.90;99.90;;;;;;5018609;28;20034;-76
2023/11/12 00:17:19;;;;;;;4.97;2.90;;;7.00;99.90;;;;;;5006343;28;20041;-77
2023/11/12 00:19:45;;;;;;;4.75;2.40;;;7.00;99.90;;;;;;5026414;28;20042;-76
2023/11/12 00:22:12;;;;;;;4.80;1.92;;;7.00;99.90;;;;;;5023442;28;20100;-76
2023/11/12 00:24:38;;;;;;;10.60;3.08;;;7.00;99.90;;;;;;5020900;28;20498;-76
2023/11/12 00:27:04;;;;;;;5.97;2.40;;;6.90;99.90;;;;;;5030771;28;20048;-77
2023/11/12 00:29:31;;;;;;;7.80;2.70;;;6.90;99.90;;;;;;5022863;28;20029;-75
2023/11/12 00:31:57;;;;;;;8.20;3.38;;;6.90;99.90;;;;;;5021096;28;20034;-76
2023/11/12 00:34:23;;;;;;;6.45;2.72;;;6.90;99.90;;;;;;5005393;28;20128;-77
2023/11/12 00:36:49;;;;;;;8.27;2.50;;;6.90;99.90;;;;;;5020823;28;20065;-77
2023/11/12 00:39:15;;;;;;;4.50;2.30;;;6.80;99.90;;;;;;5005644;28;20036;-77
2023/11/12 00:41:41;;;;;;;7.20;2.40;;;6.80;99.90;;;;;;5021896;28;20391;-77
2023/11/12 00:44:10;;;;;;;4.55;2.78;;;6.80;99.90;;;;;;5022031;28;20045;-77
2023/11/12 00:46:40;;;;;;;7.55;2.95;;;6.70;99.90;;;;;;5025623;28;20037;-75
2023/11/12 00:49:07;;;;;;;4.70;2.40;;;6.70;99.90;;;;;;5001621;28;20474;-75
2023/11/12 00:51:34;;;;;;;4.40;2.30;;;6.70;99.90;;;;;;5001121;28;20507;-76
2023/11/12 00:54:00;;;;;;;7.88;3.33;;;6.60;99.90;;;;;;5028540;28;20061;-76
2023/11/12 00:56:26;;;;;;;4.90;2.13;;;6.60;99.90;;;;;;5017992;28;20037;-76
2023/11/12 00:58:52;;;;;;;4.97;1.90;;;6.50;99.90;;;;;;5019876;28;20041;-78
2023/11/12 01:01:18;;;;;;;8.70;3.03;;;6.50;99.90;;;;;;5000926;28;20049;-75
2023/11/12 01:03:44;;;;;;;7.50;2.45;;;6.40;99.90;;;;;;5003754;28;20062;-76
2023/11/12 01:06:10;;;;;;;11.65;3.75;;;6.40;99.90;;;;;;5004741;28;20033;-77
2023/11/12 01:08:35;;;;;;;3.67;1.92;;;6.30;99.90;;;;;;5020698;28;20117;-76
2023/11/12 01:11:01;;;;;;;4.28;2.17;;;6.30;99.90;;;;;;5025744;28;20117;-76
2023/11/12 01:13:26;;;;;;;9.90;3.13;;;6.20;99.90;;;;;;5013521;28;20487;-76
2023/11/12 01:15:52;;;;;;;3.70;1.83;;;6.20;99.90;;;;;;5016715;28;20042;-76
2023/11/12 01:18:18;;;;;;;6.05;2.63;;;6.10;99.90;;;;;;5021566;28;20030;-76
2023/11/12 01:20:44;;;;;;;7.70;2.30;;;6.00;99.90;;;;;;5016512;28;20987;-74
2023/11/12 01:23:10;;;;;;;5.30;2.58;;;6.00;99.90;;;;;;5000513;28;20100;-76
2023/11/12 01:25:36;;;;;;;5.75;1.95;;;5.90;99.90;;;;;;5004474;28;20042;-76
2023/11/12 01:28:02;;;;;;;6.95;2.00;;;5.90;99.90;;;;;;5006381;28;20034;-77
2023/11/12 01:30:28;;;;;;;9.43;3.30;;;5.80;99.90;;;;;;5004021;28;20041;-78
2023/11/12 01:32:54;;;;;;;7.93;2.65;;;5.80;99.90;;;;;;5000608;28;20049;-75
2023/11/12 01:35:20;;;;;;;4.78;2.58;;;5.80;99.90;;;;;;5017933;28;20040;-77
2023/11/12 01:37:48;;;;;;;6.03;2.88;;;5.80;99.90;;;;;;5016895;28;20083;-75
2023/11/12 01:40:15;;;;;;;6.93;3.25;;;5.80;99.90;;;;;;5000383;28;20034;-75
2023/11/12 01:42:44;;;;;;;4.43;2.55;;;5.70;99.90;;;;;;5020146;28;20439;-77
2023/11/12 01:45:11;;;;;;;5.65;3.05;;;5.70;99.90;;;;;;4996161;28;20499;-76
2023/11/12 01:47:39;;;;;;;7.45;2.90;;;5.70;99.90;;;;;;4999580;28;20037;-76
2023/11/12 01:50:07;;;;;;;9.20;3.25;;;5.80;99.90;;;;;;5006892;28;20060;-77
2023/11/12 01:52:34;;;;;;;7.97;2.80;;;5.70;99.90;;;;;;5017901;28;20112;-75
2023/11/12 01:55:01;;;;;;;8.35;3.72;;;5.70;99.90;;;;;;5012567;28;20056;-76
2023/11/12 01:57:27;;;;;;;8.20;3.60;;;5.80;99.90;;;;;;5005633;28;20048;-77
2023/11/12 01:59:53;;;;;;;9.77;3.55;;;5.70;99.90;;;;;;5018999;28;20041;-77
2023/11/12 02:02:20;;;;;;;7.25;3.22;;;5.70;99.90;;;;;;5002425;28;20030;-76
2023/11/12 02:04:48;;;;;;;9.00;3.30;;;5.70;99.90;;;;;;5019593;28;20686;-77
2023/11/12 02:07:14;;;;;;;7.93;3.85;;;5.70;99.90;;;;;;5005518;28;20091;-75
2023/11/12 02:09:41;;;;;;;7.70;3.38;;;5.70;99.90;;;;;;5005718;28;20040;-77
2023/11/12 02:12:07;;;;;;;7.00;3.30;;;5.70;99.90;;;;;;4998568;28;20076;-78
2023/11/12 02:14:33;;;;;;;9.07;3.63;;;5.70;99.90;;;;;;5013128;28;20049;-75
2023/11/12 02:16:59;;;;;;;6.40;3.45;;;5.70;99.90;;;;;;5008171;28;20110;-78
2023/11/12 02:19:26;;;;;;;7.30;3.60;;;5.60;99.90;;;;;;5015109;28;20045;-77
2023/11/12 02:21:53;;;;;;;7.85;3.90;;;5.60;99.90;;;;;;5021275;28;20049;-77
2023/11/12 02:24:19;;;;;;;9.00;3.85;;;5.60;99.90;;;;;;5002288;28;20036;-75
2023/11/12 02:26:46;;;;;;;11.05;3.70;;;5.60;99.90;;;;;;5002786;28;20072;-75
2023/11/12 02:29:12;;;;;;;7.15;3.38;;;5.60;99.90;;;;;;5006845;28;20037;-77
2023/11/12 02:31:38;;;;;;;7.03;2.97;;;5.60;99.90;;;;;;4998232;28;20052;-76
2023/11/12 02:39:15;;;;;;;8.27;3.47;;;5.50;99.90;;;;;;5752305;23;20064;-75
2023/11/12 02:41:41;;;;;;;7.28;3.53;;;5.50;99.90;;;;;;5066326;28;20059;-73
2023/11/12 02:44:07;;;;;;;8.20;3.45;;;5.40;99.90;;;;;;5048062;28;20388;-75
2023/11/12 02:46:35;;;;;;;8.60;3.40;;;5.40;99.90;;;;;;5028528;28;20033;-76
2023/11/12 02:49:03;;;;;;;8.73;3.08;;;5.40;99.90;;;;;;5040240;28;20481;-75
2023/11/12 02:51:29;;;;;;;7.57;3.13;;;5.40;99.90;;;;;;5062850;28;20041;-76
2023/11/12 02:53:54;;;;;;;9.57;3.38;;;5.30;99.90;;;;;;5039008;28;20048;-76
2023/11/12 02:56:22;;;;;;;6.15;3.53;;;5.30;99.90;;;;;;5042314;28;20029;-75
2023/11/12 02:58:48;;;;;;;6.03;3.33;;;5.30;99.90;;;;;;5059291;28;20067;-75
2023/11/12 03:01:14;;;;;;;6.95;3.13;;;5.30;99.90;;;;;;5045610;28;20032;-75
2023/11/12 03:03:40;;;;;;;5.50;2.55;;;5.40;99.90;;;;;;5060534;28;20089;-76
2023/11/12 03:06:06;;;;;;;6.35;3.33;;;5.30;99.90;;;;;;5044131;28;20123;-75
2023/11/12 03:08:31;;;;;;;7.97;3.30;;;5.20;99.90;;;;;;5044319;28;20068;-75
2023/11/12 03:10:57;;;;;;;6.15;3.35;;;5.20;99.90;;;;;;5040944;28;20175;-75
2023/11/12 03:13:23;;;;;;;10.73;3.83;;;5.20;99.90;;;;;;5043017;28;20020;-76
2023/11/12 03:15:48;;;;;;;7.68;3.35;;;5.20;99.90;;;;;;5037506;28;20037;-75
2023/11/12 03:18:14;;;;;;;7.00;4.00;;;5.30;99.90;;;;;;5042460;28;20028;-76
2023/11/12 03:20:39;;;;;;;9.52;3.88;;;5.30;99.90;;;;;;5041658;28;20029;-76
2023/11/12 03:23:07;;;;;;;7.70;4.15;;;5.40;99.90;;;;;;5065814;28;20036;-76
2023/11/12 03:25:32;;;;;;;9.20;4.57;;;5.40;99.90;;;;;;5036314;28;20029;-76
2023/11/12 03:27:59;;;;;;;5.97;3.40;;;5.50;99.90;;;;;;5068436;28;20055;-75
2023/11/12 03:30:24;;;;;;;7.55;3.70;;;5.50;99.90;;;;;;5044846;28;20371;-75
2023/11/12 03:32:50;;;;;;;6.80;3.30;;;5.50;99.90;;;;;;5044500;28;20047;-75
2023/11/12 03:35:16;;;;;;;10.25;4.13;;;5.50;99.90;;;;;;5041621;28;20033;-75
2023/11/12 03:37:42;;;;;;;6.03;3.55;;;5.50;99.90;;;;;;5042582;28;20060;-75
2023/11/12 03:40:08;;;;;;;6.70;3.80;;;5.50;99.90;;;;;;5029848;28;20037;-75
2023/11/12 03:42:34;;;;;;;7.32;3.85;;;5.50;99.90;;;;;;5024079;28;20056;-74
2023/11/12 03:44:59;;;;;;;5.63;3.70;;;5.40;99.90;;;;;;5027302;28;20038;-76
2023/11/12 03:47:25;;;;;;;5.70;3.20;;;5.40;99.90;;;;;;5042285;28;20409;-75
2023/11/12 03:49:51;;;;;;;7.25;4.07;;;5.30;99.90;;;;;;5040499;28;20445;-76
2023/11/12 03:52:16;;;;;;;11.07;3.80;;;5.30;99.90;;;;;;5025759;28;20403;-74
2023/11/12 03:54:42;;;;;;;9.82;4.28;;;5.30;99.90;;;;;;5042865;28;20072;-76
2023/11/12 03:57:09;;;;;;;9.52;4.28;;;5.30;99.90;;;;;;5024284;28;20033;-76
2023/11/12 03:59:36;;;;;;;9.95;3.65;;;5.40;99.90;;;;;;5031094;28;20079;-75
2023/11/12 04:02:02;;;;;;;7.63;4.05;;;5.40;99.90;;;;;;5040405;28;20036;-74
2023/11/12 04:04:28;;;;;;;7.90;3.58;;;5.40;99.90;;;;;;5041565;28;20025;-76
2023/11/12 04:06:53;;;;;;;13.07;3.40;;;5.40;99.90;;;;;;5020936;28;20490;-75
2023/11/12 04:09:19;;;;;;;7.57;3.90;;;5.50;99.90;;;;;;5042483;28;20025;-74
2023/11/12 04:11:45;;;;;;;9.70;4.70;;;5.50;99.90;;;;;;5019793;28;20034;-77
2023/11/12 04:14:10;;;;;;;8.32;4.63;;;5.50;99.90;;;;;;5027088;28;20033;-75
2023/11/12 04:16:36;;;;;;;14.82;5.60;;;5.60;99.90;;;;;;5026885;28;20028;-76
2023/11/12 04:19:03;;;;;;;10.90;4.57;;;5.60;99.90;;;;;;5039829;28;20449;-75
2023/11/12 04:21:30;;;;;;;9.82;5.03;;;5.70;99.90;;;;;;5023559;28;20029;-76
2023/11/12 04:23:55;;;;;;;9.73;4.40;;;5.70;99.90;;;;;;5047138;28;20070;-76
2023/11/12 04:26:22;;;;;;;11.82;5.28;;;5.70;99.90;;;;;;5023956;28;20055;-76
2023/11/12 04:28:47;;;;;;;9.43;4.57;;;5.80;99.90;;;;;;5028452;28;20033;-75
2023/11/12 04:31:13;;;;;;;9.98;4.40;;;5.80;99.90;;;;;;5042214;28;20029;-75
2023/11/12 04:33:38;;;;;;;9.27;4.63;;;5.80;99.90;;;;;;5025185;28;20397;-75
2023/11/12 04:36:04;;;;;;;8.50;4.63;;;5.90;99.90;;;;;;5022715;28;20045;-75
2023/11/12 04:38:30;;;;;;;14.70;4.78;;;5.90;99.90;;;;;;5026949;28;20461;-75
2023/11/12 04:40:56;;;;;;;16.40;6.50;;;5.90;99.90;;;;;;5022144;28;20025;-76
2023/11/12 04:43:21;;;;;;;8.73;4.30;;;5.90;99.90;;;;;;5023576;28;20038;-75
2023/11/12 04:45:47;;;;;;;11.93;4.57;;;6.00;99.90;;;;;;5027750;28;20064;-74
2023/11/12 04:48:12;;;;;;;10.75;4.85;;;6.00;99.90;;;;;;5025819;28;20045;-76
2023/11/12 04:50:38;;;;;;;12.82;5.00;;;6.00;99.90;;;;;;5041602;28;20064;-75
2023/11/12 04:53:05;;;;;;;9.50;4.50;;;6.00;99.90;;;;;;5043406;28;20053;-75
2023/11/12 04:55:31;;;;;;;8.63;4.13;;;6.10;99.90;;;;;;5022757;28;20095;-76
2023/11/12 04:57:57;;;;;;;7.65;3.67;;;6.10;99.90;;;;;;5025595;28;20124;-76
2023/11/12 05:00:22;;;;;;;6.68;3.83;;;6.00;99.90;;;;;;5026403;28;20124;-75
2023/11/12 05:02:48;;;;;;;9.93;4.30;;;6.00;99.90;;;;;;5020909;28;20029;-75
2023/11/12 05:05:15;;;;;;;11.02;4.00;;;6.00;99.90;;;;;;5043529;28;20148;-74
2023/11/12 05:07:40;;;;;;;7.45;3.85;;;6.00;99.90;;;;;;5023733;28;20466;-75
2023/11/12 05:10:08;;;;;;;8.40;4.20;;;6.00;99.90;;;;;;5023463;28;20030;-76
2023/11/12 05:12:34;;;;;;;8.50;4.40;;;6.00;99.90;;;;;;5025703;28;20121;-77
2023/11/12 05:15:00;;;;;;;10.05;4.53;;;6.00;99.90;;;;;;5039974;28;20487;-75
2023/11/12 05:17:26;;;;;;;9.35;4.63;;;6.00;99.90;;;;;;5027666;28;20609;-76
2023/11/12 05:19:52;;;;;;;9.50;4.45;;;6.00;99.90;;;;;;5024917;28;20071;-75
2023/11/12 05:22:18;;;;;;;9.32;4.93;;;6.10;99.90;;;;;;5023795;28;20115;-73
2023/11/12 05:24:43;;;;;;;10.68;4.53;;;6.20;99.90;;;;;;5013676;28;20495;-76
2023/11/12 05:27:09;;;;;;;14.00;5.70;;;6.10;99.90;;;;;;5041300;28;20043;-74
2023/11/12 05:29:35;;;;;;;8.75;4.28;;;6.20;99.90;;;;;;5034744;28;20032;-75
2023/11/12 05:32:00;;;;;;;8.02;4.07;;;6.20;99.90;;;;;;5031052;28;20371;-76
2023/11/12 05:34:26;;;;;;;7.40;4.25;;;6.20;99.90;;;;;;5030803;28;20047;-74
2023/11/12 05:36:52;;;;;;;7.95;4.13;;;6.20;99.90;;;;;;5023008;28;20565;-73
2023/11/12 05:39:17;;;;;;;9.35;4.00;;;6.30;99.90;;;;;;5040576;28;20033;-75
2023/11/12 05:41:43;;;;;;;9.18;4.45;;;6.30;99.90;;;;;;5038464;28;20040;-76
2023/11/12 05:44:08;;;;;;;14.60;4.97;;;6.30;99.90;;;;;;5025108;28;20492;-74
2023/11/12 05:46:34;;;;;;;11.18;4.35;;;6.30;99.90;;;;;;5040424;28;20124;-74
2023/11/12 05:49:00;;;;;;;6.63;4.30;;;6.30;99.90;;;;;;5019927;28;20034;-75
2023/11/12 05:51:25;;;;;;;8.75;4.43;;;6.30;99.90;;;;;;5025507;28;20041;-75
2023/11/12 05:53:51;;;;;;;10.80;4.47;;;6.40;99.90;;;;;;5023611;28;20112;-76
2023/11/12 05:56:17;;;;;;;11.43;5.40;;;6.40;99.90;;;;;;5039687;28;20032;-75
2023/11/12 05:58:43;;;;;;;11.85;4.50;;;6.40;99.90;;;;;;5020508;28;20533;-74
2023/11/12 06:01:08;;;;;;;12.02;5.80;;;6.40;99.90;;;;;;5036520;28;20018;-76
2023/11/12 06:03:34;;;;;;;12.05;5.00;;;6.40;99.90;;;;;;5025190;28;20406;-76
2023/11/12 06:05:59;;;;;;;11.48;4.60;;;6.50;99.90;;;;;;5041653;28;20041;-76
2023/11/12 06:08:25;;;;;;;11.18;5.07;;;6.50;99.90;;;;;;5029589;28;20037;-75
2023/11/12 06:10:51;;;;;;;8.77;4.72;;;6.50;99.90;;;;;;5019983;28;20037;-76
2023/11/12 06:13:16;;;;;;;11.68;5.70;;;6.50;99.90;;;;;;5038598;28;20033;-75
2023/11/12 06:15:43;;;;;;;11.82;4.72;;;6.50;99.90;;;;;;5039372;28;20037;-75
2023/11/12 06:18:08;;;;;;;15.30;5.68;;;6.50;99.90;;;;;;5043787;28;20037;-75
2023/11/12 06:20:34;;;;;;;11.07;5.28;;;6.60;99.90;;;;;;5022456;28;20029;-76
2023/11/12 06:23:00;;;;;;;10.52;5.40;;;6.60;99.90;;;;;;5023530;28;20063;-75
2023/11/12 06:25:25;;;;;;;11.30;5.32;;;6.60;99.90;;;;;;5021907;28;20449;-77
2023/11/12 06:27:51;;;;;;;13.77;6.05;;;6.60;99.90;;;;;;5024082;28;20464;-76
2023/11/12 06:30:17;;;;;;;13.13;5.63;;;6.60;99.90;;;;;;5021081;28;20063;-76
2023/11/12 06:32:43;;;;;;;12.15;5.15;;;6.60;99.90;;;;;;5021756;28;20075;-75
2023/11/12 06:35:09;;;;;;;10.50;5.30;;;6.70;99.90;;;;;;5022901;28;20052;-74
2023/11/12 06:37:34;;;;;;;15.30;5.88;;;6.60;99.90;;;;;;5025470;28;20036;-76
2023/11/12 06:40:00;;;;;;;13.02;5.82;;;6.60;99.90;;;;;;5020286;28;20472;-77
2023/11/12 06:42:27;;;;;;;17.23;5.55;;;6.60;99.90;;;;;;5039469;28;20167;-76
2023/11/12 06:44:52;;;;;;;12.13;5.25;;;6.60;99.90;;;;;;5037927;28;20506;-76
2023/11/12 06:47:18;;;;;;;11.27;5.32;;;6.60;99.90;;;;;;5024778;28;20033;-75
2023/11/12 06:49:44;;;;;;;10.60;5.72;;;6.60;99.90;;;;;;5021828;28;20033;-76
2023/11/12 06:52:10;;;;;;;24.17;6.72;;;6.50;99.90;;;;;;5041308;28;20036;-75
2023/11/12 06:54:36;;;;;;;12.35;5.75;;;6.60;99.90;;;;;;5038680;28;20033;-77
2023/11/12 06:57:01;;;;;;;13.05;6.15;;;6.60;99.90;;;;;;5022592;28;20028;-76
2023/11/12 06:59:28;;;;;;;13.00;5.88;;;6.60;99.90;;;;;;5020774;28;20037;-76
2023/11/12 07:01:54;;;;;;;17.33;6.50;;;6.60;99.90;;;;;;5037020;28;20124;-75
2023/11/12 07:04:19;;;;;;;16.08;5.90;;;6.60;99.90;;;;;;5021459;28;20120;-77
2023/11/12 07:06:45;;;;;;;13.00;7.07;;;6.60;99.90;;;;;;5024386;28;20063;-76
2023/11/12 07:09:12;;;;;;;12.52;6.18;;;6.60;99.90;;;;;;5027859;28;20028;-74
2023/11/12 07:11:38;;;;;;;17.13;6.13;;;6.60;99.90;;;;;;5016278;28;20033;-76
2023/11/12 07:14:03;;;;;;;16.92;6.07;;;6.60;99.90;;;;;;5025980;28;20036;-76
2023/11/12 07:16:29;;;;;;;12.07;5.90;;;6.60;99.90;;;;;;5028903;28;20033;-74
2023/11/12 07:18:57;;;;;;;13.75;6.63;;;6.60;99.90;;;;;;5014599;28;20034;-76
2023/11/12 07:21:30;;;;;;;14.70;6.20;;;6.60;99.90;;;;;;5020735;28;20017;-76
2023/11/12 07:23:57;;;;;;;15.88;6.95;;;6.60;99.90;;;;;;5017703;28;20048;-75
2023/11/12 07:26:26;;;;;;;14.85;6.32;;;6.60;99.90;;;;;;5020710;28;20482;-77
2023/11/12 07:28:53;;;;;;;9.87;4.57;;;6.60;99.90;;;;;;5023305;28;20029;-75
2023/11/12 07:31:23;;;;;;;10.85;5.47;;;6.60;99.90;;;;;;5023492;28;20086;-76
2023/11/12 07:33:48;;;;;;;16.60;6.25;;;6.50;99.90;;;;;;5031882;28;20029;-74
2023/11/12 07:36:15;;;;;;;13.65;6.47;;;6.60;99.90;;;;;;5019297;28;20025;-75
2023/11/12 07:38:41;;;;;;;11.40;6.15;;;6.60;99.90;;;;;;5024755;28;20033;-74
2023/11/12 07:41:07;;;;;;;11.73;5.72;;;6.60;99.90;;;;;;5027223;28;20025;-76
2023/11/12 07:43:36;;;;;;;16.25;6.47;;;6.60;99.90;;;;;;5022105;28;20521;-77
2023/11/12 07:46:03;;;;;;;14.25;6.30;;;6.60;99.90;;;;;;5021855;28;20048;-77
2023/11/12 07:48:30;;;;;;;10.02;5.38;;;6.60;99.90;;;;;;5024822;28;20038;-77
2023/11/12 07:50:59;;;;;;;12.65;5.85;;;6.70;99.90;;;;;;5020292;28;20060;-75
2023/11/12 07:53:26;;;;;;;7.40;4.22;;;6.70;99.90;;;;;;5041935;28;20658;-77
2023/11/12 07:55:52;;;;;;;13.43;6.22;;;6.70;99.90;;;;;;5018284;28;20087;-75
2023/11/12 07:58:18;;;;;;;15.82;6.72;;;6.70;99.90;;;;;;5021254;28;20032;-76
2023/11/12 08:00:44;;;;;;;10.63;5.38;;;6.80;99.90;;;;;;5025748;28;20464;-75
2023/11/12 08:03:09;;;;;;;12.45;5.45;;;6.80;99.90;;;;;;5018665;28;20029;-76
2023/11/12 08:05:35;;;;;;;21.00;6.88;;;6.80;99.90;;;;;;5041514;28;20056;-76
2023/11/12 08:08:00;;;;;;;15.82;6.00;;;6.90;99.90;;;;;;5024175;28;20685;-74
2023/11/12 08:10:26;;;;;;;9.40;5.30;;;6.80;99.90;;;;;;5045135;28;20078;-74
2023/11/12 08:12:52;;;;;;;14.35;5.32;;;6.90;99.90;;;;;;5045896;28;20070;-76
2023/11/12 08:15:18;;;;;;;13.13;5.18;;;6.90;99.90;;;;;;5023354;28;20044;-76
2023/11/12 08:17:45;;;;;;;11.57;5.40;;;6.90;99.90;;;;;;5023097;28;20038;-77
2023/11/12 08:20:11;;;;;;;12.07;6.00;;;6.90;99.90;;;;;;5044142;28;20060;-76
2023/11/12 08:22:37;;;;;;;13.77;5.18;;;6.90;99.90;;;;;;5029584;28;20191;-76
2023/11/12 08:25:03;;;;;;;8.60;4.60;;;6.90;99.90;;;;;;5026764;28;20150;-74
2023/11/12 08:27:30;;;;;;;14.27;5.68;;;6.90;99.90;;;;;;5019730;28;20037;-76
2023/11/12 08:29:56;;;;;;;15.52;5.15;;;6.90;99.90;;;;;;5026121;28;20041;-74
2023/11/12 08:32:22;;;;;;;13.85;6.38;;;6.90;99.90;;;;;;5026098;28;20095;-75
2023/11/12 08:34:47;;;;;;;11.43;5.57;;;6.90;99.90;;;;;;5025912;28;20034;-76
2023/11/12 08:37:13;;;;;;;10.98;5.10;;;6.90;99.90;;;;;;5043706;28;20037;-75
2023/11/12 08:39:39;;;;;;;16.38;5.97;;;7.00;99.90;;;;;;5041334;28;20144;-75
2023/11/12 08:42:05;;;;;;;16.50;5.75;;;6.90;99.90;;;;;;5024401;28;20455;-75
2023/11/12 08:44:30;;;;;;;11.68;5.35;;;6.90;99.90;;;;;;5022811;28;20033;-75
2023/11/12 08:46:56;;;;;;;11.43;5.13;;;6.90;99.90;;;;;;5018002;28;20386;-76
2023/11/12 08:49:22;;;;;;;14.25;5.68;;;6.90;99.90;;;;;;5022784;28;20112;-75
2023/11/12 08:51:47;;;;;;;18.08;6.85;;;6.90;99.90;;;;;;5015242;28;20040;-74
2023/11/12 08:54:13;;;;;;;13.45;5.95;;;6.90;99.90;;;;;;5024745;28;20033;-74
2023/11/12 08:56:39;;;;;;;15.65;6.10;;;6.90;99.90;;;;;;5027080;28;20227;-74
2023/11/12 08:59:07;;;;;;;15.48;6.72;;;6.90;99.90;;;;;;5023653;28;20109;-75
2023/11/12 09:01:36;;;;;;;11.43;5.57;;;7.00;99.90;;;;;;5000617;28;20119;-77
2023/11/12 09:04:02;;;;;;;20.80;7.32;;;7.10;99.90;;;;;;4998443;28;20030;-76
2023/11/12 09:06:28;;;;;;;14.50;6.78;;;7.20;99.90;;;;;;5013581;28;20040;-76
2023/11/12 09:08:55;;;;;;;11.45;5.63;;;7.30;99.90;;;;;;5024625;28;20025;-76
2023/11/12 09:11:21;;;;;;;12.85;6.70;;;7.40;99.90;;;;;;5027751;28;20036;-74
2023/11/12 09:13:47;;;;;;;15.90;6.38;;;7.40;99.90;;;;;;5030272;28;20479;-75
2023/11/12 09:16:13;;;;;;;12.05;5.93;;;7.40;99.90;;;;;;5039752;28;20096;-75
2023/11/12 09:18:39;;;;;;;11.23;5.55;;;7.40;99.90;;;;;;5021797;28;20045;-75
2023/11/12 09:21:05;;;;;;;13.77;6.68;;;7.40;99.90;;;;;;5021699;28;20040;-74
2023/11/12 09:23:31;;;;;;;12.23;6.30;;;7.60;99.90;;;;;;5025713;28;20029;-78
2023/11/12 09:25:56;;;;;;;14.40;6.53;;;7.50;99.90;;;;;;5042441;28;20064;-74
2023/11/12 09:28:22;;;;;;;12.20;5.25;;;7.50;99.90;;;;;;5027707;28;20044;-77
2023/11/12 09:30:47;;;;;;;10.30;6.05;;;7.50;99.90;;;;;;5018020;28;20479;-77
2023/11/12 09:33:14;;;;;;;12.48;5.43;;;7.50;99.90;;;;;;5027455;28;20029;-77
2023/11/12 09:35:40;;;;;;;13.15;5.72;;;7.50;99.90;;;;;;5028189;28;20040;-77
2023/11/12 09:38:06;;;;;;;14.75;6.88;;;7.50;99.90;;;;;;5042400;28;20045;-78
2023/11/12 09:40:32;;;;;;;15.55;6.38;;;7.60;99.90;;;;;;5039199;28;20045;-76
2023/11/12 09:42:58;;;;;;;12.80;5.28;;;7.50;99.90;;;;;;5025412;28;20489;-77
2023/11/12 09:45:25;;;;;;;12.45;6.28;;;7.60;99.90;;;;;;5040358;28;20365;-77
2023/11/12 09:47:54;;;;;;;11.75;5.63;;;7.70;99.90;;;;;;5023251;28;20037;-76
2023/11/12 09:50:21;;;;;;;13.98;6.30;;;7.80;99.90;;;;;;5041669;28;20048;-77
2023/11/12 09:52:47;;;;;;;12.00;6.60;;;7.80;99.90;;;;;;5023494;28;20083;-76
2023/11/12 09:55:16;;;;;;;14.50;6.20;;;8.00;99.90;;;;;;5027212;28;20044;-77
2023/11/12 09:57:43;;;;;;;13.50;6.28;;;8.00;99.90;;;;;;5022357;28;20509;-76
2023/11/12 10:00:12;;;;;;;17.65;6.90;;;8.10;99.90;;;;;;5040917;28;20045;-76
2023/11/12 10:02:39;;;;;;;13.98;6.82;;;8.20;99.90;;;;;;5039227;28;20029;-76
2023/11/12 10:05:10;;;;;;;16.83;6.07;;;8.20;99.90;;;;;;5040065;28;20037;-77
2023/11/12 10:07:46;;;;;;;15.68;7.22;;;8.30;99.90;;;;;;5031074;28;20028;-77
2023/11/12 10:10:21;;;;;;;14.20;5.78;;;8.40;99.90;;;;;;5014455;28;20091;-78
2023/11/12 10:12:48;;;;;;;14.52;7.05;;;8.40;99.90;;;;;;5012888;28;20041;-77
2023/11/12 10:15:14;;;;;;;16.65;6.60;;;8.50;99.90;;;;;;5015391;28;20033;-78
2023/11/12 10:17:46;;;;;;;15.68;6.25;;;8.50;99.90;;;;;;5022481;28;20030;-77
2023/11/12 10:20:29;;;;;;;14.30;6.50;;;8.60;99.90;;;;;;5017992;28;20132;-75
2023/11/12 10:22:55;;;;;;;12.05;5.88;;;8.60;99.90;;;;;;5027627;28;20033;-77
2023/11/12 10:25:43;;;;;;;12.68;6.28;;;8.60;99.90;;;;;;5024809;28;20047;-77
2023/11/12 10:28:11;;;;;;;13.57;6.13;;;8.70;99.90;;;;;;5023794;28;20037;-76
2023/11/12 10:30:38;;;;;;;13.73;5.72;;;8.70;99.90;;;;;;5030304;28;20029;-75
2023/11/12 10:33:17;;;;;;;13.32;6.43;;;8.80;99.90;;;;;;5037220;28;20029;-78
2023/11/12 10:35:44;;;;;;;12.65;5.72;;;8.80;99.90;;;;;;5021321;28;20452;-76
2023/11/12 10:38:12;;;;;;;12.35;6.18;;;8.90;99.90;;;;;;5032361;28;20037;-78
2023/11/12 10:40:38;;;;;;;13.73;5.95;;;8.90;99.90;;;;;;5027883;28;20029;-78
2023/11/12 10:43:09;;;;;;;11.85;5.65;;;9.00;99.90;;;;;;5014896;28;20052;-76
2023/11/12 10:45:41;;;;;;;;;;;9.00;99.90;;;;;;5015951;28;20127;-77
2023/11/12 10:48:10;;;;;;;11.65;5.32;;;9.10;99.90;;;;;;5019672;28;19917;-76
2023/11/12 10:50:37;;;;;;;11.55;5.78;;;9.10;99.90;;;;;;5008423;28;20038;-77
2023/11/12 10:53:05;;;;;;;14.13;5.30;;;9.10;99.90;;;;;;5027601;28;20029;-77
2023/11/12 10:55:31;;;;;;;11.60;5.35;;;9.00;99.90;;;;;;5023972;28;20042;-76
2023/11/12 10:57:59;;;;;;;18.70;6.85;;;9.10;99.90;;;;;;5015092;28;20052;-75
2023/11/12 11:00:25;;;;;;;15.25;6.20;;;9.20;99.90;;;;;;5014930;28;20101;-78
2023/11/12 11:02:52;;;;;;;11.30;5.63;;;9.20;99.90;;;;;;5008432;28;20427;-75
2023/11/12 11:05:19;;;;;;;14.30;5.57;;;9.30;99.90;;;;;;5019889;28;20040;-76
2023/11/12 11:07:48;;;;;;;18.77;6.40;;;9.40;99.90;;;;;;5029234;28;20091;-78
2023/11/12 11:10:15;;;;;;;13.73;5.93;;;9.50;99.90;;;;;;5028274;28;20026;-77
2023/11/12 11:12:42;;;;;;;15.02;6.60;;;9.70;99.90;;;;;;5022212;28;20671;-77
2023/11/12 11:15:54;;;;;;;16.20;7.00;;;9.90;99.90;;;;;;5016490;28;20076;-77
2023/11/12 11:18:32;;;;;;;15.15;7.28;;;9.90;99.90;;;;;;5023241;28;20040;-77
2023/11/12 11:21:08;;;;;;;15.25;6.18;;;9.80;99.90;;;;;;5020729;28;20056;-76
2023/11/12 11:23:40;;;;;;;16.63;7.50;;;9.80;99.90;;;;;;5017406;28;20033;-75
2023/11/12 11:26:27;;;;;;;19.55;8.00;;;9.70;99.90;;;;;;5014680;28;20042;-75
2023/11/12 11:29:05;;;;;;;15.18;7.20;;;9.70;99.90;;;;;;5006379;28;20130;-76
2023/11/12 11:31:32;;;;;;;15.70;6.93;;;9.50;99.90;;;;;;5009840;28;20080;-77
2023/11/12 11:33:58;;;;;;;15.82;7.35;;;9.40;99.90;;;;;;5019002;28;20058;-76
2023/11/12 11:36:27;;;;;;;16.38;6.60;;;9.40;99.90;;;;;;5015370;28;20496;-76
2023/11/12 11:39:02;;;;;;;14.80;7.05;;;9.30;99.90;;;;;;5011549;28;20600;-76
2023/11/12 11:41:34;;;;;;;14.77;6.63;;;9.30;99.90;;;;;;5047771;28;20064;-76
2023/11/12 11:44:37;;;;;;;12.98;6.43;;;9.30;99.90;;;;;;5044233;28;20041;-76
2023/11/12 11:47:15;;;;;;;10.50;5.10;;;9.20;99.90;;;;;;5044537;28;20038;-76
2023/11/12 11:49:40;;;;;;;9.98;4.78;;;9.00;99.90;;;;;;5038437;28;20039;-77
2023/11/12 11:52:07;;;;;;;10.38;4.68;;;8.90;99.90;;;;;;5041345;28;20108;-76
2023/11/12 11:54:34;;;;;;;9.38;4.95;;;8.70;99.90;;;;;;5032118;28;20033;-79
2023/11/12 11:57:04;;;;;;;11.98;5.85;;;8.70;99.90;;;;;;5038178;28;20418;-76
2023/11/12 11:59:35;;;;;;;10.00;5.13;;;8.60;99.90;;;;;;5033641;28;20033;-77
2023/11/12 12:02:01;;;;;;;11.80;5.03;;;8.50;99.90;;;;;;5052218;28;20028;-75
2023/11/12 12:04:29;;;;;;;14.43;5.65;;;8.40;99.90;;;;;;5048872;28;20044;-77
2023/11/12 12:06:55;;;;;;;15.73;5.30;;;8.30;99.90;;;;;;5041425;28;20033;-77
2023/11/12 12:09:23;;;;;;;12.15;5.10;;;8.20;99.90;;;;;;5044069;28;20113;-78
2023/11/12 12:11:51;;;;;;;11.85;5.20;;;8.20;99.90;;;;;;5042524;28;20036;-76
2023/11/12 12:14:18;;;;;;;9.60;4.72;;;8.10;99.90;;;;;;5042279;28;20029;-75
2023/11/12 12:16:45;;;;;;;10.70;4.88;;;8.10;99.90;;;;;;5037887;28;20053;-75
2023/11/12 12:19:15;;;;;;;10.60;4.85;;;8.00;99.90;;;;;;5041324;28;20118;-75
2023/11/12 12:21:45;;;;;;;11.18;4.80;;;7.90;99.90;;;;;;5039051;28;20548;-76
2023/11/12 12:24:11;;;;;;;12.80;6.28;;;7.90;99.90;;;;;;5032722;28;20025;-74
2023/11/12 12:26:37;;;;;;;11.20;5.15;;;7.80;99.90;;;;;;5040310;28;20056;-77
2023/11/12 12:29:21;;;;;;;10.32;4.95;;;7.80;99.90;;;;;;5039070;28;20491;-77
2023/11/12 12:31:53;;;;;;;7.85;4.07;;;7.80;99.90;;;;;;5042871;28;20040;-76
2023/11/12 12:34:20;;;;;;;9.35;4.80;;;7.70;99.90;;;;;;5039720;28;20033;-76
2023/11/12 12:36:56;;;;;;;11.52;4.70;;;7.70;99.90;;;;;;5034468;28;20081;-78
2023/11/12 12:39:23;;;;;;;13.57;5.68;;;7.80;99.90;;;;;;5059755;28;20043;-77
2023/11/12 12:41:55;;;;;;;8.05;4.38;;;7.70;99.90;;;;;;5059357;28;20037;-77
2023/11/12 12:44:23;;;;;;;14.93;5.22;;;7.70;99.90;;;;;;5051919;28;20271;-76
2023/11/12 12:46:53;;;;;;;11.88;5.32;;;7.70;99.90;;;;;;5047349;28;20032;-77
2023/11/12 12:49:30;;;;;;;12.43;5.40;;;7.70;99.90;;;;;;5049418;28;20482;-76
2023/11/12 12:52:02;;;;;;;8.63;4.82;;;7.70;99.90;;;;;;5060691;28;20039;-77
2023/11/12 12:54:32;;;;;;;9.43;4.65;;;7.70;99.90;;;;;;5053668;28;20098;-77